Amsel, Algeria
Current Conditions -  °F | °C
As of 5:30 PM on Saturday 25 Oct 2014 (Local Time) from DAAT Reporting Station
Clear Clear  
Wind Chill: 81°   Ceiling: Unl
Heat Index: 81°   Visibility: 6mi
Dew Point: 30°   Wind: 12mph
Humidity: 16%   Direction: 300°WNW
Pressure: 30.12"   Gusts: NA
Location:  22.63°N, 5.43°E
Report Text: DAAT 251630Z 30010KT CAVOK 27/M01 Q1020
Loading
Personal Weather Stations






























Interactive Weather Map
Tropical Storm Tracking
New forecast layout! Learn more

10-Day Weather Forecast

Advertisements
Track Severe Weather on mobile